createdAt,value
2023-03-27T00:02:51.157Z,12.68
2023-03-27T00:07:57.749Z,12.63
2023-03-27T00:12:59.795Z,12.60
2023-03-27T00:18:05.119Z,12.53
2023-03-27T00:23:07.322Z,12.51
2023-03-27T00:28:09.851Z,12.46
2023-03-27T00:33:12.734Z,12.40
2023-03-27T00:38:15.576Z,12.40
2023-03-27T00:43:30.681Z,12.36
2023-03-27T00:48:35.716Z,12.23
2023-03-27T00:53:37.930Z,12.01
2023-03-27T00:58:46.647Z,11.90
2023-03-27T01:03:49.497Z,11.76
2023-03-27T01:08:51.870Z,11.62
2023-03-27T01:14:24.862Z,11.47
2023-03-27T01:20:10.158Z,11.40
2023-03-27T01:25:30.735Z,11.31
2023-03-27T01:30:39.744Z,11.13
2023-03-27T01:36:09.143Z,11.12
2023-03-27T01:41:35.477Z,11.03
2023-03-27T01:46:51.764Z,10.98
2023-03-27T01:52:03.094Z,10.93
2023-03-27T01:57:08.537Z,10.65
2023-03-27T02:02:18.250Z,10.32
2023-03-27T02:07:28.778Z,10.28
2023-03-27T02:12:38.368Z,10.03
2023-03-27T02:17:58.033Z,9.88
2023-03-27T02:23:06.608Z,9.87
2023-03-27T02:28:11.937Z,9.85
2023-03-27T02:33:19.844Z,9.89
2023-03-27T02:38:31.330Z,9.76
2023-03-27T02:43:43.462Z,9.59
2023-03-27T02:48:59.824Z,9.50
2023-03-27T02:54:32.649Z,9.43
2023-03-27T02:59:42.494Z,9.38
2023-03-27T03:04:48.254Z,9.31
2023-03-27T03:10:03.212Z,9.36
2023-03-27T03:15:08.780Z,9.15
2023-03-27T03:20:13.208Z,9.18
2023-03-27T03:25:18.049Z,8.88
2023-03-27T03:30:20.079Z,9.09
2023-03-27T03:35:35.079Z,8.97
2023-03-27T03:40:43.885Z,8.85
2023-03-27T03:45:46.280Z,8.82
2023-03-27T03:50:49.102Z,8.87
2023-03-27T03:55:53.604Z,8.92
2023-03-27T04:00:57.365Z,8.81
2023-03-27T04:06:17.736Z,8.56
2023-03-27T04:11:22.935Z,8.69
2023-03-27T04:16:50.461Z,8.62
2023-03-27T04:22:02.708Z,8.59
2023-03-27T04:27:08.880Z,8.56
2023-03-27T04:32:29.441Z,8.49
2023-03-27T04:37:51.686Z,8.40
2023-03-27T04:43:13.499Z,8.37
2023-03-27T04:48:15.999Z,8.33
2023-03-27T04:53:23.623Z,8.35
2023-03-27T04:58:25.997Z,8.31
2023-03-27T05:03:30.010Z,8.30
2023-03-27T05:08:44.169Z,8.34
2023-03-27T05:13:57.797Z,8.35
2023-03-27T05:19:03.909Z,8.12
2023-03-27T05:24:15.986Z,7.82
2023-03-27T05:29:19.695Z,7.81
2023-03-27T05:34:30.337Z,7.80
2023-03-27T05:39:37.020Z,7.72
2023-03-27T05:44:43.925Z,7.71
2023-03-27T05:49:46.509Z,7.66
2023-03-27T05:54:48.660Z,7.64
2023-03-27T05:59:51.185Z,7.67
2023-03-27T06:04:56.467Z,7.58
2023-03-27T06:10:13.781Z,7.72
2023-03-27T06:15:19.969Z,7.76
2023-03-27T06:20:46.881Z,7.75
2023-03-27T06:25:49.652Z,7.70
2023-03-27T06:30:52.455Z,7.73
2023-03-27T06:36:07.688Z,7.72
2023-03-27T06:41:11.808Z,7.60
2023-03-27T06:46:45.515Z,7.37
2023-03-27T06:51:58.386Z,7.38
2023-03-27T06:57:01.794Z,7.51
2023-03-27T07:02:12.552Z,7.57
2023-03-27T07:07:41.555Z,7.59
2023-03-27T07:12:47.445Z,7.73
2023-03-27T07:17:57.432Z,7.76
2023-03-27T07:23:00.518Z,7.87
2023-03-27T07:28:28.676Z,8.00
2023-03-27T07:33:33.093Z,8.12
2023-03-27T07:38:36.098Z,8.30
2023-03-27T07:43:52.523Z,8.43
2023-03-27T07:48:57.761Z,8.45
2023-03-27T07:54:04.812Z,8.47
2023-03-27T07:59:12.024Z,8.56
2023-03-27T08:04:15.568Z,8.68
2023-03-27T08:09:30.135Z,8.94
2023-03-27T08:14:33.814Z,9.07
2023-03-27T08:19:46.646Z,9.30
2023-03-27T08:24:50.892Z,9.48
2023-03-27T08:30:00.887Z,9.53
2023-03-27T08:35:05.730Z,9.78
2023-03-27T08:40:14.162Z,10.12
2023-03-27T08:45:34.370Z,10.46
2023-03-27T08:51:00.265Z,10.93
2023-03-27T08:56:03.746Z,11.41
2023-03-27T09:01:30.532Z,11.95
2023-03-27T09:06:46.159Z,13.07
2023-03-27T09:12:03.092Z,14.08
2023-03-27T09:17:19.308Z,15.35
2023-03-27T09:22:32.170Z,15.78
2023-03-27T09:27:39.968Z,16.52
2023-03-27T09:33:05.973Z,17.31
2023-03-27T09:38:24.961Z,17.49
2023-03-27T09:43:33.658Z,17.76
2023-03-27T09:48:47.118Z,18.77
2023-03-27T09:53:58.767Z,18.59
2023-03-27T09:59:34.917Z,18.83
2023-03-27T10:05:12.311Z,19.10
2023-03-27T10:10:23.159Z,19.62
2023-03-27T10:16:04.693Z,19.09
2023-03-27T10:21:24.913Z,19.81
2023-03-27T10:26:31.215Z,19.55
2023-03-27T10:31:40.341Z,19.91
2023-03-27T10:36:47.630Z,20.41
2023-03-27T10:41:54.294Z,20.82
2023-03-27T10:46:56.974Z,21.16
2023-03-27T10:52:19.738Z,20.95
2023-03-27T10:57:42.098Z,21.72
2023-03-27T11:03:10.597Z,21.71
2023-03-27T11:08:19.709Z,21.87
2023-03-27T11:13:28.108Z,21.88
2023-03-27T11:18:39.436Z,21.71
2023-03-27T11:23:52.773Z,21.18
2023-03-27T11:29:21.628Z,21.41
2023-03-27T11:34:42.968Z,21.42
2023-03-27T11:40:24.910Z,21.10
2023-03-27T11:45:59.409Z,20.79
2023-03-27T11:51:16.004Z,20.32
2023-03-27T11:56:58.247Z,20.15
2023-03-27T12:02:49.614Z,19.59
2023-03-27T12:08:04.988Z,19.19
2023-03-27T12:13:18.910Z,18.97
2023-03-27T12:18:27.428Z,18.76
2023-03-27T12:23:47.650Z,18.43
2023-03-27T12:29:24.476Z,18.62
2023-03-27T12:34:54.572Z,18.47
2023-03-27T12:40:00.952Z,18.48
2023-03-27T12:45:16.889Z,18.28
2023-03-27T12:50:28.458Z,18.24
2023-03-27T12:55:40.538Z,18.23
2023-03-27T13:01:00.597Z,18.24
2023-03-27T13:07:06.518Z,18.22
2023-03-27T13:12:47.334Z,18.25
2023-03-27T13:18:10.115Z,18.04
2023-03-27T13:23:33.066Z,18.41
2023-03-27T13:28:37.967Z,18.38
2023-03-27T13:34:11.702Z,18.54
2023-03-27T13:39:21.363Z,18.54
2023-03-27T13:44:38.268Z,18.31
2023-03-27T13:50:05.117Z,18.32
2023-03-27T13:55:35.132Z,18.12
2023-03-27T14:01:09.706Z,18.35
2023-03-27T14:06:49.372Z,18.58
2023-03-27T14:12:07.080Z,18.45
2023-03-27T14:17:38.188Z,18.42
2023-03-27T14:22:45.880Z,18.56
2023-03-27T14:27:54.310Z,18.67
2023-03-27T14:33:06.847Z,18.67
2023-03-27T14:38:26.920Z,18.43
2023-03-27T14:43:30.884Z,18.59
2023-03-27T14:55:29.862Z,18.91
2023-03-27T15:30:32.975Z,19.05
2023-03-27T16:12:34.553Z,19.62
2023-03-27T16:17:42.969Z,19.60
2023-03-27T16:22:55.268Z,19.55
2023-03-27T16:28:02.834Z,19.44
2023-03-27T16:33:19.450Z,19.44
2023-03-27T16:38:21.840Z,19.38
2023-03-27T16:43:24.273Z,19.43
2023-03-27T16:48:26.488Z,19.34
2023-03-27T16:53:28.534Z,19.37
2023-03-27T16:58:31.667Z,19.31
2023-03-27T17:03:34.152Z,19.28
2023-03-27T17:08:37.192Z,19.07
2023-03-27T17:13:42.914Z,19.08
2023-03-27T17:18:46.014Z,19.14
2023-03-27T17:23:49.010Z,19.09
2023-03-27T17:28:51.525Z,19.02
2023-03-27T17:33:53.655Z,18.78
2023-03-27T17:39:02.887Z,18.89
2023-03-27T17:44:12.057Z,18.74
2023-03-27T17:49:14.381Z,18.65
2023-03-27T17:54:18.143Z,18.51
2023-03-27T17:59:21.182Z,18.39
2023-03-27T18:04:24.617Z,18.30
2023-03-27T18:09:28.567Z,18.16
2023-03-27T18:14:39.209Z,17.98
2023-03-27T18:19:44.354Z,17.90
2023-03-27T18:24:46.561Z,17.80
2023-03-27T18:29:49.442Z,17.71
2023-03-27T18:34:52.575Z,17.59
2023-03-27T18:39:54.922Z,17.47
2023-03-27T18:44:57.228Z,17.31
2023-03-27T18:49:59.398Z,17.02
2023-03-27T18:55:01.677Z,17.03
2023-03-27T19:00:09.151Z,16.93
2023-03-27T19:05:11.705Z,16.75
2023-03-27T19:10:14.168Z,16.55
2023-03-27T19:15:24.975Z,16.35
2023-03-27T19:20:35.739Z,16.23
2023-03-27T19:26:09.260Z,16.09
2023-03-27T19:31:12.637Z,15.97
2023-03-27T19:36:14.820Z,15.75
2023-03-27T19:41:17.467Z,15.51
2023-03-27T19:46:19.704Z,15.58
2023-03-27T19:51:26.284Z,15.40
2023-03-27T19:56:28.523Z,15.34
2023-03-27T20:01:32.180Z,15.24
2023-03-27T20:06:34.595Z,15.12
2023-03-27T20:11:38.384Z,15.02
2023-03-27T20:16:41.929Z,14.81
2023-03-27T20:21:44.776Z,14.77
2023-03-27T20:26:53.634Z,14.62
2023-03-27T20:31:58.991Z,14.53
2023-03-27T20:37:03.736Z,14.31
2023-03-27T20:42:18.329Z,14.42
2023-03-27T20:47:21.555Z,14.39
2023-03-27T20:52:23.945Z,14.31
2023-03-27T20:57:26.146Z,14.27
2023-03-27T21:02:28.384Z,14.12
2023-03-27T21:07:34.346Z,14.00
2023-03-27T21:12:36.693Z,14.08
2023-03-27T21:17:41.534Z,14.03
2023-03-27T21:22:43.707Z,13.82
2023-03-27T21:27:45.664Z,13.67
2023-03-27T21:32:49.290Z,13.58
2023-03-27T21:37:51.421Z,13.47
2023-03-27T21:42:54.664Z,13.32
2023-03-27T21:47:56.906Z,13.25
2023-03-27T21:52:59.823Z,13.19
2023-03-27T21:58:01.798Z,13.09
2023-03-27T22:03:03.743Z,12.89
2023-03-27T22:08:07.854Z,12.73
2023-03-27T22:13:10.301Z,12.63
2023-03-27T22:18:13.870Z,12.57
2023-03-27T22:23:17.738Z,12.26
2023-03-27T22:28:21.166Z,12.21
2023-03-27T22:33:23.966Z,12.16
2023-03-27T22:38:30.732Z,12.18
2023-03-27T22:43:33.084Z,12.13
2023-03-27T22:48:35.619Z,12.05
2023-03-27T22:53:38.493Z,11.97
2023-03-27T22:58:40.857Z,11.80
2023-03-27T23:03:42.977Z,11.68
2023-03-27T23:08:45.085Z,11.64
2023-03-27T23:13:50.453Z,11.61
2023-03-27T23:19:00.617Z,11.59
2023-03-27T23:24:06.436Z,11.65
2023-03-27T23:29:10.432Z,11.57
2023-03-27T23:34:15.795Z,11.56
2023-03-27T23:39:19.566Z,11.54
2023-03-27T23:44:22.805Z,11.52
2023-03-27T23:49:27.249Z,11.37
2023-03-27T23:54:32.036Z,11.43
2023-03-27T23:59:37.898Z,11.35
